Time;durP1;ratioP1;P1;durP2;ratioP2;P2;SDS_P1;SDS_P2;PMS_P1;PMS_P2;Temp;Humidity;BMP_temperature;BMP_pressure;BME280_temperature;BME280_humidity;BME280_pressure;Samples;Min_cycle;Max_cycle;Signal;HPM_P1;HPM_P2
2022/10/30 00:01:32;;;;;;;22.80;15.00;;;15.00;99.90;;;;;;6256431;22;20186;-84
2022/10/30 00:03:59;;;;;;;19.67;14.00;;;15.00;99.90;;;;;;6257267;22;20400;-86
2022/10/30 00:06:27;;;;;;;17.10;13.77;;;14.90;99.90;;;;;;6230709;22;21025;-86
2022/10/30 00:08:54;;;;;;;22.30;15.67;;;15.00;99.90;;;;;;6257051;22;20408;-85
2022/10/30 00:11:23;;;;;;;18.53;14.03;;;14.90;99.90;;;;;;6257140;22;20452;-87
2022/10/30 00:13:52;;;;;;;27.02;14.48;;;14.90;99.90;;;;;;6256302;22;20767;-87
2022/10/30 00:16:22;;;;;;;20.02;13.70;;;14.90;99.90;;;;;;6257572;22;20229;-84
2022/10/30 00:18:50;;;;;;;18.57;14.07;;;14.80;99.90;;;;;;6283140;22;20419;-87
2022/10/30 00:21:17;;;;;;;18.27;13.55;;;14.80;99.90;;;;;;6283349;22;20622;-85
2022/10/30 00:23:51;;;;;;;17.42;14.48;;;14.70;99.90;;;;;;6256433;22;20175;-85
2022/10/30 00:26:20;;;;;;;23.83;16.65;;;14.70;99.90;;;;;;6256303;22;20285;-88
2022/10/30 00:28:52;;;;;;;17.97;13.20;;;14.70;99.90;;;;;;6254826;22;20210;-85
2022/10/30 00:31:21;;;;;;;18.90;14.60;;;14.70;99.90;;;;;;6254439;22;20464;-86
2022/10/30 00:33:52;;;;;;;15.40;12.63;;;14.50;99.90;;;;;;6254465;22;20198;-85
2022/10/30 00:36:21;;;;;;;15.68;13.60;;;14.50;99.90;;;;;;6257073;22;20183;-85
2022/10/30 00:38:48;;;;;;;18.63;13.80;;;14.40;99.90;;;;;;6284035;22;20183;-85
2022/10/30 00:41:19;;;;;;;19.80;13.73;;;14.40;99.90;;;;;;6257084;22;20179;-86
2022/10/30 00:43:50;;;;;;;28.85;16.05;;;14.50;99.90;;;;;;6257877;22;20383;-86
2022/10/30 00:46:38;;;;;;;15.88;13.75;;;14.60;99.90;;;;;;6284954;22;20581;-87
2022/10/30 00:49:12;;;;;;;21.75;14.20;;;14.50;99.90;;;;;;6287636;22;20174;-86
2022/10/30 00:51:59;;;;;;;21.88;14.13;;;14.40;99.90;;;;;;6270819;22;20155;-86
2022/10/30 00:54:26;;;;;;;20.60;15.05;;;14.40;99.90;;;;;;6270401;22;20194;-86
2022/10/30 00:56:55;;;;;;;17.42;15.65;;;14.40;99.90;;;;;;6297088;22;20225;-86
2022/10/30 00:59:26;;;;;;;20.17;14.43;;;14.50;99.90;;;;;;6236762;22;20175;-87
2022/10/30 01:01:55;;;;;;;25.92;16.85;;;14.50;99.90;;;;;;6256464;22;20422;-88
2022/10/30 01:04:25;;;;;;;19.83;16.20;;;14.50;99.90;;;;;;6256994;22;20178;-88
2022/10/30 01:06:57;;;;;;;23.20;15.93;;;14.40;99.90;;;;;;6283308;22;20182;-86
2022/10/30 01:09:25;;;;;;;19.25;14.18;;;14.40;99.90;;;;;;6283821;22;20572;-86
2022/10/30 01:11:52;;;;;;;16.30;13.02;;;14.40;99.90;;;;;;6287399;22;20182;-85
2022/10/30 01:14:23;;;;;;;21.13;14.50;;;14.40;99.90;;;;;;6297074;22;20247;-88
2022/10/30 01:17:20;;;;;;;22.88;15.60;;;14.30;99.90;;;;;;6269851;22;20201;-84
2022/10/30 01:20:24;;;;;;;21.65;15.77;;;14.30;99.90;;;;;;6183724;22;20190;-85
2022/10/30 01:23:38;;;;;;;29.15;17.15;;;14.20;99.90;;;;;;6259609;22;20155;-86
2022/10/30 01:26:48;;;;;;;26.10;17.13;;;14.20;99.90;;;;;;6265968;22;20186;-85
2022/10/30 01:29:55;;;;;;;18.90;14.85;;;14.20;99.90;;;;;;6281788;22;20184;-85
2022/10/30 01:32:32;;;;;;;17.45;15.15;;;14.20;99.90;;;;;;6282428;22;20171;-85
2022/10/30 01:35:26;;;;;;;17.90;15.32;;;14.20;99.90;;;;;;6282849;22;20637;-85
2022/10/30 01:38:30;;;;;;;22.08;15.75;;;14.20;99.90;;;;;;6282464;22;20221;-85
2022/10/30 01:40:57;;;;;;;21.30;16.13;;;14.20;99.90;;;;;;6280705;22;20223;-83
2022/10/30 01:43:25;;;;;;;20.27;16.40;;;14.20;99.90;;;;;;6281898;22;20344;-85
2022/10/30 01:46:13;;;;;;;21.00;15.38;;;14.20;99.90;;;;;;6281642;22;20171;-84
2022/10/30 01:48:58;;;;;;;23.42;17.20;;;14.20;99.90;;;;;;6255005;22;20179;-86
2022/10/30 01:51:53;;;;;;;16.55;14.77;;;14.10;99.90;;;;;;6255834;22;20217;-85
2022/10/30 01:54:37;;;;;;;18.10;15.35;;;14.00;99.90;;;;;;6277245;22;20510;-85
2022/10/30 01:57:33;;;;;;;17.58;14.95;;;14.00;99.90;;;;;;6256629;22;20222;-87
2022/10/30 02:00:14;;;;;;;20.65;16.38;;;14.10;99.90;;;;;;6256432;22;20375;-84
2022/10/30 02:02:44;;;;;;;20.42;15.45;;;14.10;99.90;;;;;;6280156;22;20182;-86
2022/10/30 02:05:34;;;;;;;20.63;14.85;;;14.10;99.90;;;;;;6283042;22;20182;-86
2022/10/30 02:08:03;;;;;;;20.98;15.98;;;14.10;99.90;;;;;;6281967;22;20163;-86
2022/10/30 02:10:32;;;;;;;25.98;17.20;;;14.10;99.90;;;;;;6255094;22;20183;-86
2022/10/30 02:13:01;;;;;;;22.42;17.13;;;14.10;99.90;;;;;;6254518;22;20190;-85
2022/10/30 02:15:32;;;;;;;19.70;17.42;;;14.20;99.90;;;;;;6254875;22;20195;-87
2022/10/30 02:18:00;;;;;;;22.40;16.52;;;14.20;99.90;;;;;;6254495;22;20170;-84
2022/10/30 02:20:28;;;;;;;24.48;17.38;;;14.10;99.90;;;;;;6256212;22;20328;-86
2022/10/30 02:22:55;;;;;;;19.92;15.95;;;14.10;99.90;;;;;;6256254;22;20206;-85
2022/10/30 02:25:25;;;;;;;20.42;15.45;;;14.00;99.90;;;;;;6256936;22;20194;-86
2022/10/30 02:27:53;;;;;;;25.80;16.85;;;13.70;99.90;;;;;;6282215;22;20482;-85
2022/10/30 02:30:20;;;;;;;23.27;16.42;;;13.70;99.90;;;;;;6255641;22;20182;-86
2022/10/30 02:32:50;;;;;;;21.17;16.80;;;13.70;99.90;;;;;;6256138;22;20209;-83
2022/10/30 02:35:17;;;;;;;24.48;16.88;;;13.70;99.90;;;;;;6255397;22;20207;-84
2022/10/30 02:37:47;;;;;;;30.58;19.25;;;13.70;99.90;;;;;;6254927;22;20174;-84
2022/10/30 02:40:14;;;;;;;23.75;18.05;;;13.70;99.90;;;;;;6283662;22;20182;-89
2022/10/30 02:42:42;;;;;;;23.80;17.85;;;13.70;99.90;;;;;;6274217;22;20159;-89
2022/10/30 02:45:10;;;;;;;28.67;18.90;;;13.70;99.90;;;;;;6299797;22;20250;-84
2022/10/30 02:47:37;;;;;;;24.45;18.40;;;13.60;99.90;;;;;;6286330;22;20190;-85
2022/10/30 02:50:04;;;;;;;23.83;17.73;;;13.60;99.90;;;;;;6282597;22;20178;-85
2022/10/30 02:52:31;;;;;;;22.15;17.02;;;13.60;99.90;;;;;;6282270;22;20206;-86
2022/10/30 02:54:59;;;;;;;24.80;18.38;;;13.60;99.90;;;;;;6283541;22;20230;-87
2022/10/30 02:57:26;;;;;;;26.45;18.90;;;13.60;99.90;;;;;;6283282;22;20238;-87
2022/10/30 03:00:00;;;;;;;19.50;17.48;;;13.60;99.90;;;;;;6282701;22;20221;-87
2022/10/30 03:02:28;;;;;;;20.75;17.15;;;13.60;99.90;;;;;;6257089;22;20159;-87
2022/10/30 03:04:56;;;;;;;21.58;16.67;;;13.60;99.90;;;;;;6255618;22;20175;-87
2022/10/30 03:07:24;;;;;;;23.35;17.73;;;13.60;99.90;;;;;;6283201;22;20202;-86
2022/10/30 03:09:53;;;;;;;23.25;17.33;;;13.60;99.90;;;;;;6256985;22;20229;-85
2022/10/30 03:12:20;;;;;;;19.73;15.13;;;13.60;99.90;;;;;;6232482;22;20183;-87
2022/10/30 03:14:51;;;;;;;24.45;17.38;;;13.60;99.90;;;;;;6257936;22;20199;-86
2022/10/30 03:17:18;;;;;;;24.48;18.60;;;13.60;99.90;;;;;;6284138;22;20182;-85
2022/10/30 03:19:46;;;;;;;21.42;15.82;;;13.70;99.90;;;;;;6285700;22;20179;-86
2022/10/30 03:22:14;;;;;;;20.38;16.35;;;13.60;99.90;;;;;;6258197;22;20189;-86
2022/10/30 03:24:42;;;;;;;26.98;17.55;;;13.60;99.90;;;;;;6258357;22;20239;-87
2022/10/30 03:27:09;;;;;;;22.33;16.80;;;13.50;99.90;;;;;;6258299;22;20241;-85
2022/10/30 03:29:37;;;;;;;25.25;16.42;;;13.20;99.90;;;;;;6284092;22;20210;-85
2022/10/30 03:32:09;;;;;;;19.63;15.38;;;13.30;99.90;;;;;;6284098;22;20238;-86
2022/10/30 03:34:39;;;;;;;21.20;15.77;;;13.30;99.90;;;;;;6257435;22;20215;-86
2022/10/30 03:37:08;;;;;;;20.60;17.45;;;13.40;99.90;;;;;;6258622;22;20220;-86
2022/10/30 03:39:34;;;;;;;20.38;15.35;;;13.40;99.90;;;;;;6261498;22;20171;-85
2022/10/30 03:42:03;;;;;;;16.60;14.27;;;13.50;99.90;;;;;;6260997;22;20175;-86
2022/10/30 03:44:31;;;;;;;20.05;15.23;;;13.50;99.90;;;;;;6285590;22;20409;-90
2022/10/30 03:47:04;;;;;;;20.55;15.82;;;13.20;99.90;;;;;;6236003;22;20191;-87
2022/10/30 03:49:32;;;;;;;19.73;14.85;;;13.40;99.90;;;;;;6258423;22;20171;-86
2022/10/30 03:51:59;;;;;;;20.67;14.85;;;13.50;99.90;;;;;;6288687;22;20213;-84
2022/10/30 03:54:26;;;;;;;22.58;14.52;;;13.50;99.90;;;;;;6277929;22;20185;-85
2022/10/30 03:56:53;;;;;;;17.23;14.70;;;13.50;99.90;;;;;;6278114;22;20163;-87
2022/10/30 03:59:20;;;;;;;16.63;14.82;;;13.60;99.90;;;;;;6303234;22;20193;-87
2022/10/30 04:01:49;;;;;;;16.92;12.85;;;13.60;99.90;;;;;;6299952;22;20166;-86
2022/10/30 04:04:17;;;;;;;20.17;14.27;;;13.60;99.90;;;;;;6261508;22;20182;-87
2022/10/30 04:06:43;;;;;;;17.25;13.90;;;13.60;99.90;;;;;;6234362;22;20214;-84
2022/10/30 04:09:10;;;;;;;25.60;14.30;;;13.50;99.90;;;;;;6259357;22;20175;-86
2022/10/30 04:11:37;;;;;;;19.80;15.18;;;13.50;99.90;;;;;;6284513;22;20539;-85
2022/10/30 04:14:05;;;;;;;16.42;14.32;;;13.60;99.90;;;;;;6257614;22;20171;-86
2022/10/30 04:16:32;;;;;;;19.27;14.23;;;13.50;99.90;;;;;;6256412;22;20203;-86
2022/10/30 04:19:00;;;;;;;17.58;15.05;;;13.50;99.90;;;;;;6282870;22;20183;-87
2022/10/30 04:21:29;;;;;;;19.10;14.57;;;13.50;99.90;;;;;;6281475;22;20182;-85
2022/10/30 04:23:57;;;;;;;18.42;13.95;;;13.50;99.90;;;;;;6280392;22;20240;-86
2022/10/30 04:26:32;;;;;;;15.82;13.50;;;13.50;99.90;;;;;;6280561;22;20410;-86
2022/10/30 04:28:59;;;;;;;17.55;12.38;;;13.50;99.90;;;;;;6255541;22;20183;-86
2022/10/30 04:31:28;;;;;;;23.42;14.68;;;13.50;99.90;;;;;;6256163;22;20174;-86
2022/10/30 04:33:55;;;;;;;18.05;14.85;;;13.40;99.90;;;;;;6256701;22;20179;-86
2022/10/30 04:36:31;;;;;;;17.98;14.18;;;13.40;99.90;;;;;;6281924;22;20269;-86
2022/10/30 04:39:01;;;;;;;17.85;12.98;;;13.40;99.90;;;;;;6256262;22;20182;-86
2022/10/30 04:41:28;;;;;;;18.27;14.98;;;13.40;99.90;;;;;;6256201;22;20182;-86
2022/10/30 04:43:55;;;;;;;19.17;13.70;;;13.40;99.90;;;;;;6283145;22;20174;-88
2022/10/30 04:46:24;;;;;;;18.75;14.27;;;13.40;99.90;;;;;;6256415;22;20183;-87
2022/10/30 04:48:53;;;;;;;14.57;12.55;;;13.30;99.90;;;;;;6255998;22;20556;-87
2022/10/30 04:51:20;;;;;;;16.65;14.85;;;13.40;99.90;;;;;;6283963;22;20183;-87
2022/10/30 04:53:47;;;;;;;14.38;12.07;;;13.20;99.90;;;;;;6290991;22;20206;-89
2022/10/30 04:56:15;;;;;;;19.42;13.90;;;13.30;99.90;;;;;;6276684;22;20203;-87
2022/10/30 04:58:45;;;;;;;19.23;13.30;;;13.30;99.90;;;;;;6304262;22;20195;-88
2022/10/30 05:01:14;;;;;;;20.23;14.80;;;13.30;99.90;;;;;;6263269;22;20178;-85
2022/10/30 05:03:42;;;;;;;19.83;14.25;;;13.30;99.90;;;;;;6258108;22;20179;-87
2022/10/30 05:06:20;;;;;;;19.10;12.25;;;13.20;99.90;;;;;;6282752;22;20418;-84
2022/10/30 05:08:48;;;;;;;14.85;12.13;;;13.10;99.90;;;;;;6256012;22;20214;-83
2022/10/30 05:11:16;;;;;;;16.85;12.63;;;13.10;99.90;;;;;;6255811;22;20224;-84
2022/10/30 05:13:45;;;;;;;18.95;13.45;;;13.20;99.90;;;;;;6281545;22;20183;-82
2022/10/30 05:16:13;;;;;;;17.40;14.80;;;13.10;99.90;;;;;;6282458;22;20375;-82
2022/10/30 05:18:40;;;;;;;16.63;13.23;;;13.10;99.90;;;;;;6281966;22;20179;-83
2022/10/30 05:21:06;;;;;;;15.85;12.82;;;13.00;99.90;;;;;;6282519;22;20206;-84
2022/10/30 05:23:35;;;;;;;18.58;13.50;;;13.00;99.90;;;;;;6281573;22;20234;-84
2022/10/30 05:26:03;;;;;;;17.33;13.27;;;13.00;99.90;;;;;;6282150;22;20214;-85
2022/10/30 05:28:33;;;;;;;17.08;14.23;;;13.00;99.90;;;;;;6282225;22;20400;-85
2022/10/30 05:31:00;;;;;;;20.02;12.88;;;13.00;99.90;;;;;;6256572;22;20182;-87
2022/10/30 05:33:28;;;;;;;22.42;15.30;;;12.90;99.90;;;;;;6282363;22;20186;-86
2022/10/30 05:35:55;;;;;;;23.48;16.40;;;12.80;99.90;;;;;;6255518;22;20240;-86
2022/10/30 05:38:23;;;;;;;23.50;16.42;;;12.90;99.90;;;;;;6255813;22;20491;-87
2022/10/30 05:40:51;;;;;;;21.63;13.82;;;12.90;99.90;;;;;;6282066;22;20210;-87
2022/10/30 05:43:19;;;;;;;23.23;14.02;;;12.90;99.90;;;;;;6282505;22;20225;-87
2022/10/30 05:45:48;;;;;;;28.52;14.80;;;12.90;99.90;;;;;;6281167;22;20187;-86
2022/10/30 05:48:16;;;;;;;18.35;15.32;;;12.80;99.90;;;;;;6282226;22;20405;-84
2022/10/30 05:50:43;;;;;;;19.55;15.27;;;12.70;99.90;;;;;;6281543;22;20222;-86
2022/10/30 05:53:10;;;;;;;16.58;14.52;;;12.80;99.90;;;;;;6292159;22;20212;-85
2022/10/30 05:55:37;;;;;;;18.85;16.58;;;12.90;99.90;;;;;;6294408;22;20190;-86
2022/10/30 05:58:09;;;;;;;15.25;13.65;;;12.90;99.90;;;;;;6295420;22;20229;-86
2022/10/30 06:00:39;;;;;;;18.60;16.38;;;13.00;99.90;;;;;;6269861;22;20169;-85
2022/10/30 06:03:12;;;;;;;18.10;14.13;;;12.90;99.90;;;;;;6270672;22;20175;-85
2022/10/30 06:05:47;;;;;;;21.67;14.85;;;12.90;99.90;;;;;;6293444;22;20182;-87
2022/10/30 06:08:17;;;;;;;16.25;12.88;;;12.90;99.90;;;;;;6290927;22;20190;-87
2022/10/30 06:10:46;;;;;;;15.95;13.77;;;12.70;99.90;;;;;;6300444;22;20167;-88
2022/10/30 06:13:20;;;;;;;19.40;14.93;;;12.50;99.90;;;;;;6246352;22;20183;-87
2022/10/30 06:15:50;;;;;;;16.75;13.13;;;12.70;99.90;;;;;;6265926;22;20183;-86
2022/10/30 06:18:26;;;;;;;22.20;14.27;;;12.60;99.90;;;;;;6245936;22;20209;-88
2022/10/30 06:20:55;;;;;;;24.45;13.38;;;12.50;99.90;;;;;;6258903;22;20421;-88
2022/10/30 06:23:22;;;;;;;33.92;14.57;;;12.50;99.90;;;;;;6256772;22;20223;-87
2022/10/30 06:25:49;;;;;;;15.27;11.98;;;12.50;99.90;;;;;;6255692;22;20183;-88
2022/10/30 06:28:16;;;;;;;21.27;14.27;;;12.50;99.90;;;;;;6282884;22;20224;-85
2022/10/30 06:30:43;;;;;;;20.05;13.65;;;12.60;99.90;;;;;;6256069;22;20240;-86
2022/10/30 06:33:14;;;;;;;18.60;14.65;;;12.70;99.90;;;;;;6282869;22;20224;-86
2022/10/30 06:35:42;;;;;;;18.50;13.90;;;13.00;99.90;;;;;;6255331;22;20736;-87
2022/10/30 06:38:10;;;;;;;18.67;15.93;;;13.30;99.90;;;;;;6255809;22;20224;-87
2022/10/30 06:40:38;;;;;;;20.48;14.88;;;13.60;99.90;;;;;;6256155;22;20181;-88
2022/10/30 06:43:06;;;;;;;17.42;14.13;;;13.70;99.90;;;;;;6256739;22;20179;-89
2022/10/30 06:45:33;;;;;;;22.52;14.57;;;13.70;99.90;;;;;;6256217;22;20768;-87
2022/10/30 06:48:01;;;;;;;16.27;11.68;;;13.80;99.90;;;;;;6282782;22;20197;-90
2022/10/30 06:50:28;;;;;;;18.63;14.10;;;13.90;99.90;;;;;;6282994;22;20209;-88
2022/10/30 06:52:55;;;;;;;15.85;13.07;;;14.00;99.90;;;;;;6256574;22;20179;-86
2022/10/30 06:55:24;;;;;;;15.52;12.48;;;14.10;99.90;;;;;;6257989;22;20202;-88
2022/10/30 06:57:53;;;;;;;17.15;12.80;;;14.30;99.90;;;;;;6236576;22;20498;-87
2022/10/30 07:00:24;;;;;;;20.17;12.38;;;14.50;99.90;;;;;;6261624;22;20163;-88
2022/10/30 07:03:03;;;;;;;15.98;13.70;;;14.70;99.90;;;;;;6265618;22;20159;-89
2022/10/30 07:05:36;;;;;;;11.90;10.63;;;14.90;99.90;;;;;;6237908;22;20202;-88
2022/10/30 07:08:03;;;;;;;19.67;11.05;;;15.20;99.90;;;;;;6260757;22;20230;-89
2022/10/30 07:10:32;;;;;;;20.27;11.98;;;15.50;99.90;;;;;;6263320;22;20213;-88
2022/10/30 07:13:00;;;;;;;13.80;10.67;;;15.60;99.90;;;;;;6267776;22;20179;-86
2022/10/30 07:15:38;;;;;;;18.20;9.47;;;15.80;99.90;;;;;;6291181;22;20450;-88
2022/10/30 07:18:07;;;;;;;12.90;9.00;;;15.80;99.90;;;;;;6273736;22;20392;-88
2022/10/30 07:20:34;;;;;;;11.73;9.90;;;15.90;99.90;;;;;;6290472;22;20398;-87
2022/10/30 07:23:03;;;;;;;11.77;9.63;;;15.90;99.90;;;;;;6284164;22;20462;-89
2022/10/30 07:25:30;;;;;;;11.67;9.00;;;15.90;99.90;;;;;;6258094;22;20420;-87
2022/10/30 07:27:59;;;;;;;15.70;9.37;;;16.10;99.90;;;;;;6260667;22;20537;-87
2022/10/30 07:30:27;;;;;;;12.50;10.33;;;16.80;99.90;;;;;;6262458;22;20400;-88
2022/10/30 07:33:00;;;;;;;13.63;10.70;;;18.00;99.90;;;;;;6288402;22;20378;-88
2022/10/30 07:35:30;;;;;;;20.73;10.80;;;18.90;99.90;;;;;;6262478;22;20800;-88
2022/10/30 07:38:05;;;;;;;17.90;11.67;;;19.50;99.90;;;;;;6259750;22;20383;-86
2022/10/30 07:40:33;;;;;;;15.77;12.70;;;19.00;99.90;;;;;;6286202;22;20430;-86
2022/10/30 07:43:03;;;;;;;23.13;12.17;;;19.00;99.90;;;;;;6264057;22;20424;-87
2022/10/30 07:45:33;;;;;;;13.50;12.10;;;18.80;99.90;;;;;;6264611;22;20372;-84
2022/10/30 07:48:02;;;;;;;20.87;11.60;;;19.00;99.90;;;;;;6258731;22;20436;-84
2022/10/30 07:50:30;;;;;;;16.43;12.97;;;19.30;99.90;;;;;;6282342;22;20404;-82
2022/10/30 07:52:57;;;;;;;12.70;10.47;;;19.60;99.90;;;;;;6255119;22;20371;-84
2022/10/30 07:55:24;;;;;;;12.83;9.43;;;19.10;99.90;;;;;;6281109;22;20386;-85
2022/10/30 07:57:55;;;;;;;16.43;10.23;;;18.40;99.90;;;;;;6283677;22;20716;-86
2022/10/30 08:00:22;;;;;;;16.40;12.00;;;18.30;99.90;;;;;;6231793;22;20408;-87
2022/10/30 08:02:50;;;;;;;12.97;10.30;;;18.40;99.90;;;;;;6259235;22;20385;-86
2022/10/30 08:05:17;;;;;;;15.93;10.60;;;18.90;99.90;;;;;;6258823;22;20435;-88
2022/10/30 08:07:55;;;;;;;19.60;13.70;;;19.60;99.90;;;;;;6239341;22;20365;-86
2022/10/30 08:10:23;;;;;;;14.47;10.03;;;20.20;99.90;;;;;;6283430;22;20363;-87
2022/10/30 08:12:51;;;;;;;12.03;9.33;;;21.20;99.90;;;;;;6256299;22;20370;-87
2022/10/30 08:15:20;;;;;;;15.27;10.53;;;21.30;99.90;;;;;;6254506;22;20416;-86
2022/10/30 08:17:48;;;;;;;19.90;15.47;;;20.30;99.90;;;;;;6228892;22;20415;-86
2022/10/30 08:20:19;;;;;;;15.73;9.83;;;19.80;99.90;;;;;;6230578;22;20415;-86
2022/10/30 08:22:55;;;;;;;18.50;13.00;;;19.70;99.90;;;;;;6282919;22;20382;-87
2022/10/30 08:25:27;;;;;;;13.77;10.33;;;19.70;99.90;;;;;;6285064;22;20460;-85
2022/10/30 08:28:03;;;;;;;26.53;21.40;;;19.90;99.90;;;;;;6263968;22;20424;-86
2022/10/30 08:30:33;;;;;;;14.20;12.40;;;20.30;99.90;;;;;;6257032;22;20414;-85
2022/10/30 08:33:02;;;;;;;17.17;13.03;;;20.30;99.90;;;;;;6283170;22;20762;-86
2022/10/30 08:35:32;;;;;;;14.97;12.57;;;20.20;99.90;;;;;;6242873;22;20365;-89
2022/10/30 08:38:01;;;;;;;35.47;19.30;;;20.40;99.90;;;;;;6276404;22;20427;-86
2022/10/30 08:40:29;;;;;;;13.33;10.63;;;20.50;99.90;;;;;;6302648;22;20699;-85
2022/10/30 08:42:57;;;;;;;24.60;16.60;;;20.40;99.90;;;;;;6264712;22;20923;-86
2022/10/30 08:45:24;;;;;;;19.60;12.13;;;20.10;99.90;;;;;;6288635;22;20367;-87
2022/10/30 08:47:58;;;;;;;9.50;8.50;;;20.10;99.90;;;;;;6294871;22;20454;-88
2022/10/30 08:51:02;;;;;;;17.90;9.80;;;20.30;99.90;;;;;;6278564;22;20385;-88
2022/10/30 08:53:29;;;;;;;12.90;9.70;;;20.80;99.90;;;;;;6277673;22;20402;-88
2022/10/30 08:55:56;;;;;;;11.60;9.97;;;21.00;99.90;;;;;;6301614;22;20399;-86
2022/10/30 08:58:24;;;;;;;15.50;10.27;;;20.90;99.90;;;;;;6263303;22;20407;-86
2022/10/30 09:00:52;;;;;;;13.57;9.03;;;20.80;99.90;;;;;;6258083;22;20453;-86
2022/10/30 09:03:26;;;;;;;12.97;9.20;;;20.90;99.90;;;;;;6284152;22;20428;-87
2022/10/30 09:06:01;;;;;;;9.70;8.13;;;20.70;99.90;;;;;;6282982;22;20403;-85
2022/10/30 09:08:29;;;;;;;9.90;8.53;;;20.20;99.90;;;;;;6282333;22;20409;-85
2022/10/30 09:10:57;;;;;;;12.27;8.43;;;20.40;99.90;;;;;;6283452;22;20793;-85
2022/10/30 09:13:26;;;;;;;9.27;7.37;;;20.10;99.90;;;;;;6284313;22;20706;-85
2022/10/30 09:16:02;;;;;;;10.43;8.80;;;19.90;99.90;;;;;;6256508;22;20735;-86
2022/10/30 09:18:30;;;;;;;11.70;8.70;;;20.30;99.90;;;;;;6283026;22;20408;-85
2022/10/30 09:20:57;;;;;;;9.80;8.67;;;20.50;99.90;;;;;;6259735;22;20396;-85
2022/10/30 09:23:30;;;;;;;8.97;8.07;;;20.50;99.90;;;;;;6285161;22;20409;-85
2022/10/30 09:25:57;;;;;;;11.53;8.63;;;20.60;99.90;;;;;;6281705;22;20427;-84
2022/10/30 09:28:27;;;;;;;9.77;7.73;;;20.70;99.90;;;;;;6283353;22;20566;-85
2022/10/30 09:30:57;;;;;;;8.73;7.67;;;20.50;99.90;;;;;;6254847;22;20593;-86
2022/10/30 09:33:24;;;;;;;12.13;8.37;;;20.50;99.90;;;;;;6253659;22;20590;-86
2022/10/30 09:35:52;;;;;;;15.50;8.27;;;20.50;99.90;;;;;;6256025;22;20431;-84
2022/10/30 09:38:19;;;;;;;10.07;8.07;;;20.80;99.90;;;;;;6283149;22;20389;-84
2022/10/30 09:41:28;;;;;;;11.77;7.07;;;20.70;99.90;;;;;;6284794;22;20449;-84
2022/10/30 09:44:36;;;;;;;12.50;7.03;;;20.80;99.90;;;;;;6264180;22;20397;-84
2022/10/30 09:48:00;;;;;;;8.73;5.93;;;20.70;99.90;;;;;;6287859;22;20845;-86
2022/10/30 09:50:36;;;;;;;9.07;8.17;;;20.80;99.90;;;;;;6260288;22;20399;-86
2022/10/30 09:53:29;;;;;;;10.37;6.60;;;20.90;99.90;;;;;;6283279;22;20438;-84
2022/10/30 09:56:12;;;;;;;9.90;6.40;;;20.70;99.90;;;;;;6283912;22;20448;-85
2022/10/30 09:59:22;;;;;;;9.03;6.40;;;20.40;99.90;;;;;;6281040;22;20434;-85
2022/10/30 10:01:58;;;;;;;10.50;6.33;;;20.40;99.90;;;;;;6281793;22;20339;-86
2022/10/30 10:05:01;;;;;;;8.30;5.93;;;20.50;99.90;;;;;;6282156;22;20364;-84
2022/10/30 10:07:36;;;;;;;12.03;8.00;;;20.60;99.90;;;;;;6282342;22;20357;-86
2022/10/30 10:10:25;;;;;;;7.70;5.87;;;20.70;99.90;;;;;;6236002;22;20355;-86
2022/10/30 10:12:55;;;;;;;9.67;6.33;;;20.60;99.90;;;;;;6283180;22;20450;-84
2022/10/30 10:15:47;;;;;;;13.20;7.30;;;20.50;99.90;;;;;;6281031;22;20372;-84
2022/10/30 10:18:24;;;;;;;7.23;5.50;;;20.60;99.90;;;;;;6255237;22;20428;-85
2022/10/30 10:21:00;;;;;;;11.63;6.80;;;20.70;99.90;;;;;;6256173;22;20365;-87
2022/10/30 10:23:46;;;;;;;10.20;7.20;;;20.80;99.90;;;;;;6281910;22;21092;-85
2022/10/30 10:26:28;;;;;;;9.50;5.90;;;21.00;99.90;;;;;;6282016;22;20368;-84
2022/10/30 10:29:25;;;;;;;10.57;6.00;;;21.00;99.90;;;;;;6284076;22;20369;-86
2022/10/30 10:32:11;;;;;;;6.20;5.57;;;21.00;99.90;;;;;;6288848;22;20364;-87
2022/10/30 10:35:15;;;;;;;9.90;5.63;;;21.10;99.90;;;;;;6290742;22;20549;-88
2022/10/30 10:37:57;;;;;;;9.23;4.93;;;21.40;99.90;;;;;;6288324;22;20470;-86
2022/10/30 10:41:06;;;;;;;9.43;5.20;;;21.50;99.90;;;;;;6290764;22;20860;-85
2022/10/30 10:44:04;;;;;;;7.07;5.90;;;21.90;99.90;;;;;;6290854;22;20379;-87
2022/10/30 10:46:58;;;;;;;10.10;6.00;;;21.60;99.90;;;;;;6262717;22;20404;-85
2022/10/30 10:50:08;;;;;;;7.50;5.83;;;21.50;99.90;;;;;;6255858;23;20813;-86
2022/10/30 10:53:22;;;;;;;8.97;5.40;;;21.40;99.90;;;;;;6115885;23;20408;-86
2022/10/30 10:55:53;;;;;;;9.97;5.17;;;21.50;99.90;;;;;;6253059;23;20419;-86
2022/10/30 10:59:01;;;;;;;6.70;5.33;;;21.50;99.90;;;;;;6263016;23;20400;-87
2022/10/30 11:02:31;;;;;;;9.20;5.67;;;21.70;99.90;;;;;;6245653;23;20344;-89
2022/10/30 11:05:26;;;;;;;12.13;6.93;;;21.80;99.90;;;;;;6247533;23;20701;-88
2022/10/30 11:08:36;;;;;;;8.70;5.13;;;21.90;99.90;;;;;;6244253;22;20472;-88
2022/10/30 11:11:05;;;;;;;9.00;5.70;;;21.90;99.90;;;;;;6242436;23;20397;-87
2022/10/30 11:13:39;;;;;;;8.10;5.27;;;22.10;99.90;;;;;;6255559;23;20379;-87
2022/10/30 11:16:28;;;;;;;10.47;5.57;;;22.30;99.90;;;;;;6254390;23;20375;-87
2022/10/30 11:18:59;;;;;;;9.43;5.00;;;22.40;99.90;;;;;;6257462;23;20408;-88
2022/10/30 11:21:57;;;;;;;8.03;5.77;;;22.30;99.90;;;;;;6238309;23;20366;-86
2022/10/30 11:24:49;;;;;;;6.03;5.43;;;22.30;99.90;;;;;;6262405;23;20386;-87
2022/10/30 11:27:40;;;;;;;11.10;5.50;;;22.20;99.90;;;;;;6263303;23;20351;-86
2022/10/30 11:30:19;;;;;;;6.50;5.90;;;22.60;99.90;;;;;;6263166;23;20418;-88
2022/10/30 11:32:53;;;;;;;10.20;6.03;;;22.60;99.90;;;;;;6271650;22;20412;-89
2022/10/30 11:35:24;;;;;;;7.73;4.67;;;22.90;99.90;;;;;;6248066;23;20364;-88
2022/10/30 11:38:12;;;;;;;9.10;5.47;;;22.90;99.90;;;;;;6245513;23;20404;-88
2022/10/30 11:40:46;;;;;;;7.23;5.10;;;23.20;99.90;;;;;;6237350;23;20520;-88
2022/10/30 11:43:21;;;;;;;14.70;6.67;;;23.20;99.90;;;;;;6226408;23;20479;-87
2022/10/30 11:45:51;;;;;;;8.00;6.17;;;23.30;99.90;;;;;;6229113;23;20372;-90
2022/10/30 11:48:38;;;;;;;7.30;6.30;;;23.10;99.90;;;;;;6242575;23;20706;-92
2022/10/30 11:51:11;;;;;;;15.20;6.87;;;22.90;99.90;;;;;;6265544;23;20434;-86
2022/10/30 11:53:49;;;;;;;7.57;4.77;;;23.00;99.90;;;;;;6268272;22;20393;-87
2022/10/30 11:56:21;;;;;;;8.17;6.00;;;23.00;99.90;;;;;;6255614;23;20355;-88
2022/10/30 11:58:54;;;;;;;8.30;5.63;;;22.80;99.90;;;;;;6259236;23;20397;-88
2022/10/30 12:01:30;;;;;;;8.73;5.10;;;22.70;99.90;;;;;;6252998;23;20459;-89
2022/10/30 12:04:24;;;;;;;8.30;5.53;;;22.80;99.90;;;;;;6254437;23;20437;-88
2022/10/30 12:07:23;;;;;;;8.50;6.13;;;22.60;99.90;;;;;;6255084;23;20431;-89
2022/10/30 12:09:51;;;;;;;11.07;4.70;;;22.90;99.90;;;;;;6258864;23;20408;-89
2022/10/30 12:12:41;;;;;;;15.10;5.87;;;22.80;99.90;;;;;;6270144;22;20372;-86
2022/10/30 12:15:20;;;;;;;6.83;4.80;;;23.10;99.90;;;;;;6272214;22;20479;-89
2022/10/30 12:18:02;;;;;;;6.43;4.60;;;23.00;99.90;;;;;;6260561;23;20663;-90
2022/10/30 12:20:44;;;;;;;6.57;5.70;;;23.00;99.90;;;;;;6259428;23;20693;-89
2022/10/30 12:23:20;;;;;;;5.70;4.60;;;23.10;99.90;;;;;;6256871;22;20733;-87
2022/10/30 12:25:56;;;;;;;5.97;4.97;;;23.10;99.90;;;;;;6259042;23;20405;-91
2022/10/30 12:28:26;;;;;;;6.87;4.47;;;23.10;99.90;;;;;;6257596;23;20415;-88
2022/10/30 12:31:11;;;;;;;14.03;7.00;;;23.00;99.90;;;;;;6255308;23;20381;-90
2022/10/30 12:33:54;;;;;;;12.60;6.30;;;22.60;99.90;;;;;;6259009;22;20430;-90
2022/10/30 12:36:35;;;;;;;7.50;5.03;;;22.40;99.90;;;;;;6260291;22;20411;-87
2022/10/30 12:39:12;;;;;;;6.13;5.00;;;22.40;99.90;;;;;;6252629;22;20465;-87
2022/10/30 12:42:01;;;;;;;7.13;5.67;;;22.40;99.90;;;;;;6265168;22;20707;-91
2022/10/30 12:44:53;;;;;;;7.67;6.27;;;22.50;99.90;;;;;;6230115;23;20939;-87
2022/10/30 12:55:37;;;;;;;10.30;6.13;;;22.60;99.90;;;;;;6221002;22;20240;-87
2022/10/30 12:58:25;;;;;;;10.27;5.60;;;22.70;99.90;;;;;;6300789;22;20388;-87
2022/10/30 13:01:03;;;;;;;10.63;4.83;;;22.90;99.90;;;;;;6300465;22;20359;-87
2022/10/30 13:19:39;;;;;;;9.50;6.20;;;22.90;99.90;;;;;;6251390;22;20845;-88
2022/10/30 13:22:14;;;;;;;9.93;5.37;;;22.90;99.90;;;;;;6283288;22;20408;-87
2022/10/30 13:24:50;;;;;;;6.40;4.90;;;22.80;99.90;;;;;;6283681;22;20408;-85
2022/10/30 13:27:26;;;;;;;7.50;4.77;;;22.60;99.90;;;;;;6283687;22;20357;-86
2022/10/30 13:30:13;;;;;;;7.20;5.20;;;22.40;99.90;;;;;;6282610;22;20756;-88
2022/10/30 13:33:29;;;;;;;7.57;4.90;;;22.50;99.90;;;;;;6270593;22;20445;-85
2022/10/30 13:36:20;;;;;;;7.30;6.03;;;22.60;99.90;;;;;;6255311;22;20383;-86